הכול
Milingimbi Airport (Millingimbi, Northern Territory) MGT מזג אוויר
|
Millingimbi, Northern Territory (MGT / YMGB)
שמים בהירים
רוחות קלות |
|
29 °C |
There is no TAF data available at MGT or any nearby airports.
Recent MGT METAR history
| Date | Time (ACST) | Flight Rules | Wind Dir. | Speed | Type | Height AGL (ft) | Visibility | Temp (°C) | Temp (°F) | Dew Point (°C) | Dew Point (°F) | Rel. Humid. | Pressure | Density Altitude | Remarks |
|---|---|---|---|---|---|---|---|---|---|---|---|---|---|---|---|
| 06-מאי | 09:30 | n/a | 130° | 8 kt | Missing | 29° | 84° | 24° | 75° | 74% | 1012 mb | 1,769 ft | |||
| 06-מאי | 08:30 | n/a | 160° | 9 kt | Missing | 26° | 78° | 23° | 73° | 84% | 1012 mb | 1,409 ft | |||
| 06-מאי | 07:30 | n/a | 170° | 5 kt | Missing | 24° | 75° | 23° | 73° | 94% | 1012 mb | 1,169 ft | |||
| 06-מאי | 06:30 | n/a | 140° | 4 kt | Missing | 23° | 73° | 22° | 71° | 94% | 1012 mb | 1,049 ft | |||
| 06-מאי | 05:30 | n/a | 140° | 5 kt | Missing | 23° | 73° | 22° | 71° | 94% | 1011 mb | 1,078 ft | |||
| 06-מאי | 04:30 | n/a | 150° | 5 kt | Missing | 24° | 75° | 22° | 71° | 89% | 1011 mb | 1,198 ft | |||
| 06-מאי | 03:30 | n/a | 150° | 5 kt | Missing | 24° | 75° | 23° | 73° | 94% | 1011 mb | 1,198 ft | |||
| 06-מאי | 02:30 | n/a | 150° | 4 kt | Missing | 24° | 75° | 23° | 73° | 94% | 1011 mb | 1,198 ft | |||
| 06-מאי | 01:30 | n/a | 150° | 6 kt | Missing | 25° | 77° | 23° | 73° | 89% | 1011 mb | 1,318 ft | |||
| 06-מאי | 00:30 | n/a | 150° | 7 kt | Missing | 25° | 77° | 23° | 73° | 89% | 1012 mb | 1,289 ft | |||
| 05-מאי | 23:30 | n/a | 140° | 7 kt | Missing | 26° | 78° | 23° | 73° | 84% | 1012 mb | 1,409 ft | |||
| 05-מאי | 22:30 | n/a | 130° | 7 kt | Missing | 26° | 78° | 23° | 73° | 84% | 1012 mb | 1,409 ft | |||
| 05-מאי | 21:30 | n/a | 130° | 7 kt | Missing | 27° | 80° | 22° | 71° | 74% | 1012 mb | 1,529 ft | |||
| 05-מאי | 20:30 | n/a | 140° | 6 kt | Missing | 27° | 80° | 22° | 71° | 74% | 1012 mb | 1,529 ft | |||
| 05-מאי | 19:30 | n/a | 140° | 5 kt | Missing | 28° | 82° | 22° | 71° | 70% | 1010 mb | 1,708 ft | |||
| 05-מאי | 18:30 | n/a | 140° | 6 kt | Missing | 29° | 84° | 22° | 71° | 66% | 1010 mb | 1,828 ft | |||
| 05-מאי | 17:30 | n/a | 100° | 4 kt | Missing | 30° | 86° | 23° | 73° | 66% | 1009 mb | 1,977 ft | |||
| 05-מאי | 16:30 | n/a | 90° | 6 kt | Missing | 31° | 87° | 23° | 73° | 63% | 1009 mb | 2,097 ft | |||
| 05-מאי | 15:30 | n/a | 70° | 8 kt | Missing | 32° | 89° | 21° | 69° | 52% | 1009 mb | 2,217 ft | |||
| 05-מאי | 14:30 | n/a | 70° | 7 kt | Missing | 32° | 89° | 24° | 75° | 63% | 1009 mb | 2,217 ft | |||
| 05-מאי | 13:30 | n/a | 90° | 7 kt | Missing | 32° | 89° | 23° | 73° | 59% | 1010 mb | 2,188 ft | |||
| 05-מאי | 12:30 | n/a | 100° | 7 kt | Missing | 32° | 89° | 24° | 75° | 63% | 1011 mb | 2,158 ft | |||
| 05-מאי | 11:30 | n/a | 130° | 8 kt | Missing | 32° | 89° | 24° | 75° | 63% | 1011 mb | 2,158 ft | |||
| 05-מאי | 10:30 | n/a | 120° | 8 kt | Missing | 30° | 86° | 23° | 73° | 66% | 1012 mb | 1,889 ft |
כניסה לאתר
| אין תמיכה בדפדפן שלך. שדרג את הדפדפן שלך |
